HBBA/BJM METAR and TAF weather

Enter ICAO airport designator
Station Type Date Time Source
HBBA METAR 2021/07/28 18:00 UTC NOAA

HBBA 281800Z 00000KT 9000 FEW030 24/16 Q1013 NOSIG


Station Type Date Time Source
HBBA Decoded METAR 2021/07/28 18:00 UTC NOAA

Bujumbura, Burundi (HBBA) 03-19S 029-19E 783M
Jul 28, 2021 - 02:00 PM EDT / 2021.07.28 1800 UTC
Wind: Calm:0
Visibility: 5 mile(s):0
Sky conditions: mostly clear
Temperature: 75 F (24 C)
Dew Point: 60 F (16 C)
Relative Humidity: 60%
Pressure (altimeter): 29.91 in. Hg (1013 hPa)
ob: HBBA 281800Z 00000KT 9000 FEW030 24/16 Q1013 NOSIG
cycle: 18

Station Type Date Time Source
HBBA TAF 2021/07/28 19:54 UTC NOAA

TAF TAF HBBA 281100Z 2819/2910 1812G22KT 9999 FEW030 SCT100
BECMG2818/2820 00000KT CAVOK
BECMG2903/2905 36003KT 56003KT 5000HZ FEW025
BECMG2910/2912 18010G25KT 9000 FEW030 SCT100

Example: see airport list